sensor_id;sensor_type;location;lat;lon;timestamp;temperature;humidity
18712;DHT22;9485;49.386;8.674;2022-07-06T00:02:11;22.20;43.10
18712;DHT22;9485;49.386;8.674;2022-07-06T00:07:32;22.10;43.40
18712;DHT22;9485;49.386;8.674;2022-07-06T00:12:52;22.00;43.40
18712;DHT22;9485;49.386;8.674;2022-07-06T00:18:14;21.90;43.60
18712;DHT22;9485;49.386;8.674;2022-07-06T00:23:35;21.90;43.90
18712;DHT22;9485;49.386;8.674;2022-07-06T00:28:56;21.80;44.00
18712;DHT22;9485;49.386;8.674;2022-07-06T00:34:18;21.60;44.20
18712;DHT22;9485;49.386;8.674;2022-07-06T00:39:38;21.60;44.50
18712;DHT22;9485;49.386;8.674;2022-07-06T00:44:59;21.40;44.70
18712;DHT22;9485;49.386;8.674;2022-07-06T00:50:21;21.40;44.70
18712;DHT22;9485;49.386;8.674;2022-07-06T00:55:42;21.30;45.20
18712;DHT22;9485;49.386;8.674;2022-07-06T01:01:04;21.20;45.70
18712;DHT22;9485;49.386;8.674;2022-07-06T01:06:26;21.10;45.70
18712;DHT22;9485;49.386;8.674;2022-07-06T01:11:47;21.00;45.90
18712;DHT22;9485;49.386;8.674;2022-07-06T01:17:08;21.00;46.50
18712;DHT22;9485;49.386;8.674;2022-07-06T01:22:30;20.90;46.20
18712;DHT22;9485;49.386;8.674;2022-07-06T01:27:51;20.80;46.60
18712;DHT22;9485;49.386;8.674;2022-07-06T01:33:11;20.80;46.70
18712;DHT22;9485;49.386;8.674;2022-07-06T01:38:43;20.70;46.70
18712;DHT22;9485;49.386;8.674;2022-07-06T01:44:07;20.60;47.50
18712;DHT22;9485;49.386;8.674;2022-07-06T01:49:30;20.60;47.00
18712;DHT22;9485;49.386;8.674;2022-07-06T01:54:52;20.50;47.20
18712;DHT22;9485;49.386;8.674;2022-07-06T02:00:13;20.40;47.60
18712;DHT22;9485;49.386;8.674;2022-07-06T02:05:40;20.40;47.90
18712;DHT22;9485;49.386;8.674;2022-07-06T02:11:03;20.30;47.70
18712;DHT22;9485;49.386;8.674;2022-07-06T02:16:25;20.30;48.10
18712;DHT22;9485;49.386;8.674;2022-07-06T02:21:46;20.30;48.00
18712;DHT22;9485;49.386;8.674;2022-07-06T02:27:08;20.20;48.20
18712;DHT22;9485;49.386;8.674;2022-07-06T02:32:29;20.10;48.60
18712;DHT22;9485;49.386;8.674;2022-07-06T02:37:49;20.00;48.60
18712;DHT22;9485;49.386;8.674;2022-07-06T02:43:11;20.00;48.80
18712;DHT22;9485;49.386;8.674;2022-07-06T02:48:34;19.90;49.00
18712;DHT22;9485;49.386;8.674;2022-07-06T02:53:54;19.80;49.10
18712;DHT22;9485;49.386;8.674;2022-07-06T02:59:17;19.80;49.30
18712;DHT22;9485;49.386;8.674;2022-07-06T03:04:38;19.70;49.60
18712;DHT22;9485;49.386;8.674;2022-07-06T03:09:58;19.60;49.60
18712;DHT22;9485;49.386;8.674;2022-07-06T03:15:21;19.60;49.80
18712;DHT22;9485;49.386;8.674;2022-07-06T03:20:42;19.50;50.20
18712;DHT22;9485;49.386;8.674;2022-07-06T03:26:05;19.50;50.40
18712;DHT22;9485;49.386;8.674;2022-07-06T03:31:28;19.40;50.50
18712;DHT22;9485;49.386;8.674;2022-07-06T03:36:49;19.40;50.90
18712;DHT22;9485;49.386;8.674;2022-07-06T03:42:10;19.40;51.10
18712;DHT22;9485;49.386;8.674;2022-07-06T03:47:32;19.40;51.10
18712;DHT22;9485;49.386;8.674;2022-07-06T03:52:53;19.40;51.60
18712;DHT22;9485;49.386;8.674;2022-07-06T03:58:14;19.30;51.50
18712;DHT22;9485;49.386;8.674;2022-07-06T04:03:35;19.30;51.50
18712;DHT22;9485;49.386;8.674;2022-07-06T04:08:56;19.30;52.40
18712;DHT22;9485;49.386;8.674;2022-07-06T04:14:17;19.30;52.10
18712;DHT22;9485;49.386;8.674;2022-07-06T04:19:39;19.30;52.50
18712;DHT22;9485;49.386;8.674;2022-07-06T04:24:59;19.40;52.90
18712;DHT22;9485;49.386;8.674;2022-07-06T04:30:21;19.40;52.80
18712;DHT22;9485;49.386;8.674;2022-07-06T04:35:43;19.50;52.90
18712;DHT22;9485;49.386;8.674;2022-07-06T04:41:04;19.50;52.90
18712;DHT22;9485;49.386;8.674;2022-07-06T04:46:25;19.50;52.40
18712;DHT22;9485;49.386;8.674;2022-07-06T04:51:48;19.60;52.50
18712;DHT22;9485;49.386;8.674;2022-07-06T04:57:08;19.60;52.80
18712;DHT22;9485;49.386;8.674;2022-07-06T05:02:29;19.60;52.80
18712;DHT22;9485;49.386;8.674;2022-07-06T05:07:51;19.60;52.60
18712;DHT22;9485;49.386;8.674;2022-07-06T05:13:13;19.70;52.80
18712;DHT22;9485;49.386;8.674;2022-07-06T05:18:34;19.60;52.80
18712;DHT22;9485;49.386;8.674;2022-07-06T05:23:57;19.70;52.50
18712;DHT22;9485;49.386;8.674;2022-07-06T05:29:17;19.70;52.80
18712;DHT22;9485;49.386;8.674;2022-07-06T05:34:39;19.80;52.80
18712;DHT22;9485;49.386;8.674;2022-07-06T05:40:01;19.90;52.70
18712;DHT22;9485;49.386;8.674;2022-07-06T05:45:22;19.90;52.60
18712;DHT22;9485;49.386;8.674;2022-07-06T05:50:43;20.00;52.80
18712;DHT22;9485;49.386;8.674;2022-07-06T05:56:06;20.00;52.40
18712;DHT22;9485;49.386;8.674;2022-07-06T06:01:27;20.10;52.40
18712;DHT22;9485;49.386;8.674;2022-07-06T06:06:58;20.20;52.40
18712;DHT22;9485;49.386;8.674;2022-07-06T06:12:20;20.30;52.60
18712;DHT22;9485;49.386;8.674;2022-07-06T06:17:41;20.30;52.50
18712;DHT22;9485;49.386;8.674;2022-07-06T06:23:02;20.40;52.60
18712;DHT22;9485;49.386;8.674;2022-07-06T06:28:25;20.50;52.30
18712;DHT22;9485;49.386;8.674;2022-07-06T06:33:45;20.50;52.50
18712;DHT22;9485;49.386;8.674;2022-07-06T06:39:06;20.60;52.30
18712;DHT22;9485;49.386;8.674;2022-07-06T06:44:28;20.70;52.40
18712;DHT22;9485;49.386;8.674;2022-07-06T06:49:48;20.70;52.50
18712;DHT22;9485;49.386;8.674;2022-07-06T06:55:09;20.80;52.30
18712;DHT22;9485;49.386;8.674;2022-07-06T07:00:31;20.90;52.10
18712;DHT22;9485;49.386;8.674;2022-07-06T07:05:52;21.00;52.30
18712;DHT22;9485;49.386;8.674;2022-07-06T07:11:13;21.00;52.00
18712;DHT22;9485;49.386;8.674;2022-07-06T07:16:35;21.20;52.00
18712;DHT22;9485;49.386;8.674;2022-07-06T07:21:55;21.40;51.90
18712;DHT22;9485;49.386;8.674;2022-07-06T07:27:15;21.70;51.90
18712;DHT22;9485;49.386;8.674;2022-07-06T07:32:38;22.00;52.00
18712;DHT22;9485;49.386;8.674;2022-07-06T07:37:59;22.70;51.80
18712;DHT22;9485;49.386;8.674;2022-07-06T07:43:20;23.50;51.10
18712;DHT22;9485;49.386;8.674;2022-07-06T07:48:42;24.40;50.30
18712;DHT22;9485;49.386;8.674;2022-07-06T07:54:04;25.30;49.50
18712;DHT22;9485;49.386;8.674;2022-07-06T07:59:24;26.30;49.00
18712;DHT22;9485;49.386;8.674;2022-07-06T08:04:47;27.10;47.60
18712;DHT22;9485;49.386;8.674;2022-07-06T08:10:08;27.80;46.00
18712;DHT22;9485;49.386;8.674;2022-07-06T08:15:29;28.30;45.10
18712;DHT22;9485;49.386;8.674;2022-07-06T08:20:52;28.80;44.80
18712;DHT22;9485;49.386;8.674;2022-07-06T08:26:16;29.20;43.10
18712;DHT22;9485;49.386;8.674;2022-07-06T08:31:36;29.50;42.80
18712;DHT22;9485;49.386;8.674;2022-07-06T08:36:58;29.70;42.70
18712;DHT22;9485;49.386;8.674;2022-07-06T08:42:19;30.10;41.70
18712;DHT22;9485;49.386;8.674;2022-07-06T08:47:41;30.20;41.50
18712;DHT22;9485;49.386;8.674;2022-07-06T08:53:04;30.40;41.00
18712;DHT22;9485;49.386;8.674;2022-07-06T08:58:25;30.60;40.30
18712;DHT22;9485;49.386;8.674;2022-07-06T09:03:50;30.90;39.90
18712;DHT22;9485;49.386;8.674;2022-07-06T09:09:17;31.00;40.40
18712;DHT22;9485;49.386;8.674;2022-07-06T09:14:41;31.40;39.20
18712;DHT22;9485;49.386;8.674;2022-07-06T09:20:01;31.20;38.90
18712;DHT22;9485;49.386;8.674;2022-07-06T09:25:24;31.10;38.80
18712;DHT22;9485;49.386;8.674;2022-07-06T09:30:46;31.00;38.20
18712;DHT22;9485;49.386;8.674;2022-07-06T09:36:06;30.90;38.70
18712;DHT22;9485;49.386;8.674;2022-07-06T09:41:32;30.90;38.60
18712;DHT22;9485;49.386;8.674;2022-07-06T09:46:55;31.00;39.10
18712;DHT22;9485;49.386;8.674;2022-07-06T09:52:16;31.30;38.80
18712;DHT22;9485;49.386;8.674;2022-07-06T09:57:39;31.30;37.80
18712;DHT22;9485;49.386;8.674;2022-07-06T10:03:00;31.40;38.10
18712;DHT22;9485;49.386;8.674;2022-07-06T10:08:21;31.60;37.10
18712;DHT22;9485;49.386;8.674;2022-07-06T10:13:45;31.60;37.60
18712;DHT22;9485;49.386;8.674;2022-07-06T10:19:09;31.60;36.90
18712;DHT22;9485;49.386;8.674;2022-07-06T10:24:30;31.50;36.60
18712;DHT22;9485;49.386;8.674;2022-07-06T10:29:54;31.40;36.70
18712;DHT22;9485;49.386;8.674;2022-07-06T10:35:15;31.50;36.90
18712;DHT22;9485;49.386;8.674;2022-07-06T10:40:39;31.60;36.20
18712;DHT22;9485;49.386;8.674;2022-07-06T10:46:19;31.60;36.40
18712;DHT22;9485;49.386;8.674;2022-07-06T10:51:40;31.60;35.50
18712;DHT22;9485;49.386;8.674;2022-07-06T10:57:08;31.40;36.30
18712;DHT22;9485;49.386;8.674;2022-07-06T11:02:38;31.50;36.20
18712;DHT22;9485;49.386;8.674;2022-07-06T11:08:01;31.70;35.90
18712;DHT22;9485;49.386;8.674;2022-07-06T11:13:26;31.90;35.40
18712;DHT22;9485;49.386;8.674;2022-07-06T11:18:50;31.90;35.30
18712;DHT22;9485;49.386;8.674;2022-07-06T11:24:23;31.90;34.60
18712;DHT22;9485;49.386;8.674;2022-07-06T11:29:45;31.80;34.90
18712;DHT22;9485;49.386;8.674;2022-07-06T11:35:07;31.70;35.60
18712;DHT22;9485;49.386;8.674;2022-07-06T11:40:28;31.70;34.70
18712;DHT22;9485;49.386;8.674;2022-07-06T11:45:49;31.60;34.60
18712;DHT22;9485;49.386;8.674;2022-07-06T11:51:11;31.60;34.20
18712;DHT22;9485;49.386;8.674;2022-07-06T11:56:34;31.60;34.10
18712;DHT22;9485;49.386;8.674;2022-07-06T12:01:59;31.60;34.90
18712;DHT22;9485;49.386;8.674;2022-07-06T12:07:22;31.60;33.80
18712;DHT22;9485;49.386;8.674;2022-07-06T12:12:42;31.60;35.00
18712;DHT22;9485;49.386;8.674;2022-07-06T12:18:03;31.80;34.00
18712;DHT22;9485;49.386;8.674;2022-07-06T12:23:25;32.00;34.10
18712;DHT22;9485;49.386;8.674;2022-07-06T12:28:54;32.20;34.20
18712;DHT22;9485;49.386;8.674;2022-07-06T12:34:20;32.40;33.60
18712;DHT22;9485;49.386;8.674;2022-07-06T12:39:45;32.50;33.30
18712;DHT22;9485;49.386;8.674;2022-07-06T12:45:07;32.70;33.30
18712;DHT22;9485;49.386;8.674;2022-07-06T12:50:33;32.80;33.00
18712;DHT22;9485;49.386;8.674;2022-07-06T12:56:09;33.00;32.90
18712;DHT22;9485;49.386;8.674;2022-07-06T13:01:30;33.20;31.80
18712;DHT22;9485;49.386;8.674;2022-07-06T13:06:51;33.30;31.40
18712;DHT22;9485;49.386;8.674;2022-07-06T13:12:14;33.20;31.90
18712;DHT22;9485;49.386;8.674;2022-07-06T13:17:35;33.30;31.40
18712;DHT22;9485;49.386;8.674;2022-07-06T13:22:56;33.30;31.40
18712;DHT22;9485;49.386;8.674;2022-07-06T13:28:18;33.30;31.40
18712;DHT22;9485;49.386;8.674;2022-07-06T13:33:39;33.30;30.80
18712;DHT22;9485;49.386;8.674;2022-07-06T13:39:00;33.30;30.80
18712;DHT22;9485;49.386;8.674;2022-07-06T13:44:22;33.40;31.10
18712;DHT22;9485;49.386;8.674;2022-07-06T13:49:43;33.50;31.10
18712;DHT22;9485;49.386;8.674;2022-07-06T13:55:08;33.60;31.00
18712;DHT22;9485;49.386;8.674;2022-07-06T14:00:31;33.70;30.50
18712;DHT22;9485;49.386;8.674;2022-07-06T14:05:51;33.80;30.50
18712;DHT22;9485;49.386;8.674;2022-07-06T14:11:12;33.70;30.20
18712;DHT22;9485;49.386;8.674;2022-07-06T14:16:35;33.70;29.70
18712;DHT22;9485;49.386;8.674;2022-07-06T14:21:55;33.50;29.90
18712;DHT22;9485;49.386;8.674;2022-07-06T14:27:16;33.20;29.70
18712;DHT22;9485;49.386;8.674;2022-07-06T14:32:38;33.00;30.00
18712;DHT22;9485;49.386;8.674;2022-07-06T14:37:59;32.80;30.00
18712;DHT22;9485;49.386;8.674;2022-07-06T14:43:20;32.60;29.80
18712;DHT22;9485;49.386;8.674;2022-07-06T14:48:41;32.30;29.30
18712;DHT22;9485;49.386;8.674;2022-07-06T14:54:02;31.90;29.60
18712;DHT22;9485;49.386;8.674;2022-07-06T14:59:23;31.40;29.70
18712;DHT22;9485;49.386;8.674;2022-07-06T15:04:44;31.00;30.00
18712;DHT22;9485;49.386;8.674;2022-07-06T15:10:06;30.50;29.70
18712;DHT22;9485;49.386;8.674;2022-07-06T15:15:28;30.00;30.10
18712;DHT22;9485;49.386;8.674;2022-07-06T15:20:50;29.60;30.50
18712;DHT22;9485;49.386;8.674;2022-07-06T15:26:11;29.20;30.40
18712;DHT22;9485;49.386;8.674;2022-07-06T15:31:32;28.90;30.80
18712;DHT22;9485;49.386;8.674;2022-07-06T15:36:55;28.60;31.30
18712;DHT22;9485;49.386;8.674;2022-07-06T15:42:16;28.50;31.60
18712;DHT22;9485;49.386;8.674;2022-07-06T15:47:37;28.20;31.60
18712;DHT22;9485;49.386;8.674;2022-07-06T15:53:01;28.00;31.90
18712;DHT22;9485;49.386;8.674;2022-07-06T15:58:22;27.90;32.10
18712;DHT22;9485;49.386;8.674;2022-07-06T16:03:43;27.70;32.30
18712;DHT22;9485;49.386;8.674;2022-07-06T16:09:05;27.60;32.50
18712;DHT22;9485;49.386;8.674;2022-07-06T16:14:26;27.50;32.60
18712;DHT22;9485;49.386;8.674;2022-07-06T16:19:47;27.40;32.70
18712;DHT22;9485;49.386;8.674;2022-07-06T16:25:09;27.30;32.50
18712;DHT22;9485;49.386;8.674;2022-07-06T16:30:30;27.20;32.70
18712;DHT22;9485;49.386;8.674;2022-07-06T16:35:51;27.10;32.80
18712;DHT22;9485;49.386;8.674;2022-07-06T16:41:13;26.90;32.70
18712;DHT22;9485;49.386;8.674;2022-07-06T16:46:33;26.80;33.00
18712;DHT22;9485;49.386;8.674;2022-07-06T16:51:54;26.70;33.30
18712;DHT22;9485;49.386;8.674;2022-07-06T16:57:16;26.50;33.40
18712;DHT22;9485;49.386;8.674;2022-07-06T17:02:37;26.40;33.50
18712;DHT22;9485;49.386;8.674;2022-07-06T17:07:58;26.30;33.70
18712;DHT22;9485;49.386;8.674;2022-07-06T17:13:20;26.10;33.90
18712;DHT22;9485;49.386;8.674;2022-07-06T17:18:41;26.00;34.00
18712;DHT22;9485;49.386;8.674;2022-07-06T17:24:02;25.90;34.20
18712;DHT22;9485;49.386;8.674;2022-07-06T17:29:26;25.70;34.20
18712;DHT22;9485;49.386;8.674;2022-07-06T17:34:46;25.60;34.40
18712;DHT22;9485;49.386;8.674;2022-07-06T17:40:08;25.40;34.40
18712;DHT22;9485;49.386;8.674;2022-07-06T17:45:31;25.30;34.60
18712;DHT22;9485;49.386;8.674;2022-07-06T17:50:53;25.30;35.00
18712;DHT22;9485;49.386;8.674;2022-07-06T17:56:14;25.20;34.90
18712;DHT22;9485;49.386;8.674;2022-07-06T18:01:37;25.20;35.00
18712;DHT22;9485;49.386;8.674;2022-07-06T18:06:58;25.10;35.20
18712;DHT22;9485;49.386;8.674;2022-07-06T18:12:18;25.00;35.20
18712;DHT22;9485;49.386;8.674;2022-07-06T18:17:41;25.00;35.10
18712;DHT22;9485;49.386;8.674;2022-07-06T18:23:01;25.00;35.30
18712;DHT22;9485;49.386;8.674;2022-07-06T18:28:23;24.90;35.20
18712;DHT22;9485;49.386;8.674;2022-07-06T18:33:45;24.80;35.20
18712;DHT22;9485;49.386;8.674;2022-07-06T18:39:06;24.60;35.20
18712;DHT22;9485;49.386;8.674;2022-07-06T18:44:27;24.40;35.40
18712;DHT22;9485;49.386;8.674;2022-07-06T18:49:49;24.30;35.40
18712;DHT22;9485;49.386;8.674;2022-07-06T18:55:09;24.10;35.70
18712;DHT22;9485;49.386;8.674;2022-07-06T19:00:30;24.00;35.80
18712;DHT22;9485;49.386;8.674;2022-07-06T19:05:52;23.90;35.90
18712;DHT22;9485;49.386;8.674;2022-07-06T19:11:14;23.70;36.00
18712;DHT22;9485;49.386;8.674;2022-07-06T19:16:34;23.50;36.00
18712;DHT22;9485;49.386;8.674;2022-07-06T19:21:57;23.40;36.30
18712;DHT22;9485;49.386;8.674;2022-07-06T19:27:18;23.20;37.00
18712;DHT22;9485;49.386;8.674;2022-07-06T19:32:38;23.10;36.60
18712;DHT22;9485;49.386;8.674;2022-07-06T19:38:01;23.00;36.80
18712;DHT22;9485;49.386;8.674;2022-07-06T19:43:22;22.90;37.20
18712;DHT22;9485;49.386;8.674;2022-07-06T19:48:42;22.70;37.10
18712;DHT22;9485;49.386;8.674;2022-07-06T19:54:04;22.60;37.30
18712;DHT22;9485;49.386;8.674;2022-07-06T19:59:25;22.50;37.50
18712;DHT22;9485;49.386;8.674;2022-07-06T20:04:47;22.40;37.50
18712;DHT22;9485;49.386;8.674;2022-07-06T20:10:10;22.30;37.80
18712;DHT22;9485;49.386;8.674;2022-07-06T20:15:30;22.20;38.20
18712;DHT22;9485;49.386;8.674;2022-07-06T20:20:51;22.10;38.30
18712;DHT22;9485;49.386;8.674;2022-07-06T20:26:13;22.00;38.50
18712;DHT22;9485;49.386;8.674;2022-07-06T20:31:34;21.90;38.80
18712;DHT22;9485;49.386;8.674;2022-07-06T20:36:55;21.90;38.90
18712;DHT22;9485;49.386;8.674;2022-07-06T20:42:17;21.70;39.00
18712;DHT22;9485;49.386;8.674;2022-07-06T20:47:38;21.50;39.50
18712;DHT22;9485;49.386;8.674;2022-07-06T20:52:58;21.40;39.70
18712;DHT22;9485;49.386;8.674;2022-07-06T20:58:21;21.20;40.00
18712;DHT22;9485;49.386;8.674;2022-07-06T21:03:42;21.00;40.40
18712;DHT22;9485;49.386;8.674;2022-07-06T21:09:03;20.90;40.50
18712;DHT22;9485;49.386;8.674;2022-07-06T21:14:25;20.80;40.90
18712;DHT22;9485;49.386;8.674;2022-07-06T21:19:46;20.60;41.20
18712;DHT22;9485;49.386;8.674;2022-07-06T21:25:08;20.50;41.30
18712;DHT22;9485;49.386;8.674;2022-07-06T21:30:30;20.40;41.50
18712;DHT22;9485;49.386;8.674;2022-07-06T21:35:51;20.30;41.90
18712;DHT22;9485;49.386;8.674;2022-07-06T21:41:12;20.20;42.10
18712;DHT22;9485;49.386;8.674;2022-07-06T21:46:34;20.10;42.30
18712;DHT22;9485;49.386;8.674;2022-07-06T21:51:54;20.00;42.60
18712;DHT22;9485;49.386;8.674;2022-07-06T21:57:14;20.00;42.70
18712;DHT22;9485;49.386;8.674;2022-07-06T22:02:37;19.90;42.80
18712;DHT22;9485;49.386;8.674;2022-07-06T22:07:58;19.90;43.40
18712;DHT22;9485;49.386;8.674;2022-07-06T22:13:18;19.90;43.20
18712;DHT22;9485;49.386;8.674;2022-07-06T22:18:58;19.90;43.40
18712;DHT22;9485;49.386;8.674;2022-07-06T22:24:19;19.80;43.70
18712;DHT22;9485;49.386;8.674;2022-07-06T22:29:40;20.00;43.90
18712;DHT22;9485;49.386;8.674;2022-07-06T22:35:01;20.00;44.20
18712;DHT22;9485;49.386;8.674;2022-07-06T22:40:22;20.00;44.50
18712;DHT22;9485;49.386;8.674;2022-07-06T22:46:01;20.00;44.30
18712;DHT22;9485;49.386;8.674;2022-07-06T22:51:24;20.10;44.50
18712;DHT22;9485;49.386;8.674;2022-07-06T22:56:45;20.10;44.50
18712;DHT22;9485;49.386;8.674;2022-07-06T23:02:06;20.20;44.50
18712;DHT22;9485;49.386;8.674;2022-07-06T23:07:28;20.10;44.50
18712;DHT22;9485;49.386;8.674;2022-07-06T23:12:49;20.20;45.00
18712;DHT22;9485;49.386;8.674;2022-07-06T23:18:10;20.20;44.90
18712;DHT22;9485;49.386;8.674;2022-07-06T23:23:32;20.20;45.10
18712;DHT22;9485;49.386;8.674;2022-07-06T23:28:53;20.20;45.30
18712;DHT22;9485;49.386;8.674;2022-07-06T23:34:14;20.20;45.30
18712;DHT22;9485;49.386;8.674;2022-07-06T23:39:36;20.30;45.30
18712;DHT22;9485;49.386;8.674;2022-07-06T23:44:57;20.30;45.40
18712;DHT22;9485;49.386;8.674;2022-07-06T23:50:17;20.30;45.30
18712;DHT22;9485;49.386;8.674;2022-07-06T23:55:39;20.30;45.50
